createdAt,value
2017-06-25T00:00:46.686Z,61.2
2017-06-25T00:01:46.681Z,60.91
2017-06-25T00:02:46.679Z,61.3
2017-06-25T00:03:46.675Z,61.11
2017-06-25T00:04:46.675Z,61.49
2017-06-25T00:05:46.675Z,60.91
2017-06-25T00:06:46.669Z,60.91
2017-06-25T00:07:46.668Z,61.01
2017-06-25T00:08:46.664Z,61.2
2017-06-25T00:09:46.356Z,61.11
2017-06-25T00:10:46.659Z,61.2
2017-06-25T00:11:46.656Z,61.2
2017-06-25T00:12:46.656Z,61.2
2017-06-25T00:13:46.653Z,61.01
2017-06-25T00:14:46.649Z,61.2
2017-06-25T00:15:46.646Z,61.3
2017-06-25T00:16:46.645Z,61.2
2017-06-25T00:17:46.647Z,61.2
2017-06-25T00:18:46.335Z,61.49
2017-06-25T00:19:46.635Z,61.2
2017-06-25T00:20:46.634Z,61.3
2017-06-25T00:21:46.630Z,61.01
2017-06-25T00:22:46.631Z,61.4
2017-06-25T00:23:46.628Z,61.3
2017-06-25T00:24:46.620Z,61.2
2017-06-25T00:25:46.622Z,61.2
2017-06-25T00:26:46.617Z,61.2
2017-06-25T00:27:46.622Z,61.4
2017-06-25T00:28:46.612Z,61.3
2017-06-25T00:29:46.609Z,61.3
2017-06-25T00:30:46.610Z,61.3
2017-06-25T00:31:46.606Z,61.2
2017-06-25T00:32:46.609Z,61.2
2017-06-25T00:33:46.603Z,61.3
2017-06-25T00:34:46.598Z,61.2
2017-06-25T00:35:46.595Z,61.3
2017-06-25T00:36:46.591Z,61.3
2017-06-25T00:37:46.588Z,61.2
2017-06-25T00:38:46.586Z,61.3
2017-06-25T00:39:46.583Z,61.2
2017-06-25T00:40:46.582Z,61.23
2017-06-25T00:41:46.578Z,61.23
2017-06-25T00:42:46.577Z,61.11
2017-06-25T00:43:46.571Z,61.2
2017-06-25T00:44:46.573Z,61.01
2017-06-25T00:45:46.572Z,61.2
2017-06-25T00:46:46.566Z,61.2
2017-06-25T00:47:46.565Z,61.2
2017-06-25T00:48:46.559Z,61.11
2017-06-25T00:49:46.555Z,61.23
2017-06-25T00:50:46.557Z,61.23
2017-06-25T00:51:46.552Z,61.14
2017-06-25T00:52:46.550Z,61.43
2017-06-25T00:53:46.246Z,61.3
2017-06-25T00:54:46.544Z,61.3
2017-06-25T00:55:46.544Z,61.04
2017-06-25T00:56:46.539Z,61.43
2017-06-25T00:57:46.535Z,61.04
2017-06-25T00:58:46.534Z,61.33
2017-06-25T00:59:46.531Z,61.33
2017-06-25T01:00:46.534Z,61.23
2017-06-25T01:01:46.828Z,61.14
2017-06-25T01:02:46.227Z,61.23
2017-06-25T01:03:46.522Z,61.23
2017-06-25T01:04:46.520Z,61.23
2017-06-25T01:05:46.517Z,61.43
2017-06-25T01:06:46.514Z,61.33
2017-06-25T01:07:46.511Z,61.23
2017-06-25T01:08:46.507Z,61.23
2017-06-25T01:09:46.504Z,61.04
2017-06-25T01:10:46.503Z,61.23
2017-06-25T01:11:46.501Z,61.01
2017-06-25T01:12:46.499Z,61.23
2017-06-25T01:13:46.497Z,61.43
2017-06-25T01:14:46.495Z,61.23
2017-06-25T01:15:46.490Z,61.33
2017-06-25T01:16:46.489Z,61.04
2017-06-25T01:17:46.503Z,61.3
2017-06-25T01:18:46.180Z,61.23
2017-06-25T01:19:46.480Z,61.33
2017-06-25T01:20:46.477Z,61.14
2017-06-25T01:21:46.480Z,61.14
2017-06-25T01:22:46.472Z,61.23
2017-06-25T01:23:46.470Z,61.23
2017-06-25T01:24:46.469Z,61.23
2017-06-25T01:25:46.464Z,61.14
2017-06-25T01:26:46.469Z,61.14
2017-06-25T01:27:46.488Z,61.11
2017-06-25T01:28:46.459Z,61.33
2017-06-25T01:29:46.459Z,61.23
2017-06-25T01:30:46.453Z,61.43
2017-06-25T01:31:46.451Z,61.23
2017-06-25T01:32:46.449Z,61.14
2017-06-25T01:33:46.446Z,61.14
2017-06-25T01:34:46.441Z,61.23
2017-06-25T01:35:46.441Z,61.23
2017-06-25T01:36:46.438Z,61.43
2017-06-25T01:37:46.433Z,61.43
2017-06-25T01:38:46.434Z,61.43
2017-06-25T01:39:46.431Z,61.14
2017-06-25T01:40:46.427Z,61.33
2017-06-25T01:41:46.122Z,61.43
2017-06-25T01:42:46.423Z,61.23
2017-06-25T01:43:46.429Z,61.43
2017-06-25T01:44:46.422Z,61.23
2017-06-25T01:45:46.413Z,61.14
2017-06-25T01:46:46.415Z,61.52
2017-06-25T01:47:46.411Z,61.23
2017-06-25T01:48:46.413Z,61.23
2017-06-25T01:49:46.404Z,61.33
2017-06-25T01:50:46.403Z,61.14
2017-06-25T01:51:46.400Z,61.33
2017-06-25T01:52:46.397Z,61.14
2017-06-25T01:53:46.393Z,61.23
2017-06-25T01:54:46.394Z,61.14
2017-06-25T01:55:46.392Z,61.23
2017-06-25T01:56:46.408Z,61.23
2017-06-25T01:57:46.383Z,61.23
2017-06-25T01:58:46.385Z,61.14
2017-06-25T01:59:46.381Z,61.14
2017-06-25T02:00:46.377Z,61.14
2017-06-25T02:01:46.377Z,61.33
2017-06-25T02:02:46.372Z,61.23
2017-06-25T02:03:46.369Z,61.14
2017-06-25T02:04:46.368Z,61.33
2017-06-25T02:05:46.363Z,61.14
2017-06-25T02:06:46.364Z,61.04
2017-06-25T02:07:46.360Z,61.14
2017-06-25T02:08:46.360Z,61.43
2017-06-25T02:09:46.354Z,61.43
2017-06-25T02:10:46.352Z,61.52
2017-06-25T02:11:46.350Z,61.43
2017-06-25T02:12:46.348Z,61.52
2017-06-25T02:13:46.344Z,61.33
2017-06-25T02:14:46.343Z,61.33
2017-06-25T02:15:46.341Z,61.52
2017-06-25T02:16:46.336Z,61.52
2017-06-25T02:17:46.337Z,61.52
2017-06-25T02:18:46.332Z,61.33
2017-06-25T02:19:46.330Z,61.33
2017-06-25T02:20:46.326Z,61.43
2017-06-25T02:21:46.323Z,61.14
2017-06-25T02:22:46.320Z,61.14
2017-06-25T02:23:46.320Z,61.43
2017-06-25T02:24:46.315Z,61.43
2017-06-25T02:25:46.312Z,61.33
2017-06-25T02:26:46.311Z,61.33
2017-06-25T02:27:46.311Z,61.33
2017-06-25T02:28:46.308Z,61.33
2017-06-25T02:29:46.004Z,61.43
2017-06-25T02:30:46.301Z,61.23
2017-06-25T02:31:46.302Z,61.04
2017-06-25T02:32:46.299Z,61.43
2017-06-25T02:33:46.294Z,61.52
2017-06-25T02:34:46.290Z,61.52
2017-06-25T02:35:46.289Z,61.52
2017-06-25T02:36:46.285Z,61.33
2017-06-25T02:37:46.285Z,61.52
2017-06-25T02:38:46.280Z,60.94
2017-06-25T02:39:46.278Z,61.71
2017-06-25T02:40:46.274Z,61.52
2017-06-25T02:41:46.272Z,61.52
2017-06-25T02:42:46.271Z,61.43
2017-06-25T02:43:45.964Z,61.43
2017-06-25T02:44:46.268Z,61.52
2017-06-25T02:45:46.265Z,61.52
2017-06-25T02:46:46.262Z,61.43
2017-06-25T02:47:46.255Z,61.52
2017-06-25T02:48:46.254Z,61.52
2017-06-25T02:49:46.262Z,61.52
2017-06-25T02:50:46.270Z,61.14
2017-06-25T02:51:46.247Z,61.43
2017-06-25T02:52:46.245Z,61.33
2017-06-25T02:53:46.272Z,60.75
2017-06-25T02:54:46.239Z,60.94
2017-06-25T02:55:46.237Z,61.04
2017-06-25T02:56:46.239Z,61.23
2017-06-25T02:57:46.235Z,61.14
2017-06-25T02:58:46.230Z,61.14
2017-06-25T02:59:46.226Z,61.23
2017-06-25T03:00:46.226Z,61.23
2017-06-25T03:01:46.222Z,61.23
2017-06-25T03:02:46.226Z,61.4
2017-06-25T03:03:46.220Z,61.61
2017-06-25T03:04:46.215Z,61.2
2017-06-25T03:05:46.215Z,61.49
2017-06-25T03:06:45.906Z,61.49
2017-06-25T03:07:46.208Z,61.58
2017-06-25T03:08:46.205Z,61.58
2017-06-25T03:09:46.201Z,61.78
2017-06-25T03:10:46.201Z,61.68
2017-06-25T03:11:46.198Z,61.78
2017-06-25T03:12:46.195Z,61.87
2017-06-25T03:13:46.195Z,61.78
2017-06-25T03:14:46.190Z,61.78
2017-06-25T03:15:46.189Z,61.78
2017-06-25T03:16:46.185Z,61.78
2017-06-25T03:17:46.181Z,61.78
2017-06-25T03:18:46.179Z,61.68
2017-06-25T03:19:46.180Z,61.68
2017-06-25T03:20:46.175Z,61.68
2017-06-25T03:21:46.174Z,61.78
2017-06-25T03:22:46.169Z,62.16
2017-06-25T03:23:46.166Z,61.58
2017-06-25T03:24:46.163Z,61.49
2017-06-25T03:25:46.158Z,61.78
2017-06-25T03:26:46.157Z,61.49
2017-06-25T03:27:46.158Z,61.78
2017-06-25T03:28:46.154Z,61.78
2017-06-25T03:29:46.151Z,61.49
2017-06-25T03:30:46.149Z,61.58
2017-06-25T03:31:46.145Z,61.68
2017-06-25T03:32:46.141Z,61.68
2017-06-25T03:33:46.141Z,62
2017-06-25T03:34:46.137Z,61.52
2017-06-25T03:35:46.133Z,61.58
2017-06-25T03:36:46.133Z,61.52
2017-06-25T03:37:46.134Z,61.4
2017-06-25T03:38:46.126Z,61.43
2017-06-25T03:39:46.124Z,61.61
2017-06-25T03:40:46.127Z,61.52
2017-06-25T03:41:46.121Z,61.52
2017-06-25T03:42:46.127Z,61.52
2017-06-25T03:43:45.811Z,61.43
2017-06-25T03:44:46.112Z,61.33
2017-06-25T03:45:46.107Z,61.43
2017-06-25T03:46:46.109Z,61.52
2017-06-25T03:47:46.103Z,61.52
2017-06-25T03:48:46.104Z,61.52
2017-06-25T03:49:46.102Z,61.43
2017-06-25T03:50:46.095Z,61.81
2017-06-25T03:51:46.095Z,62
2017-06-25T03:52:46.095Z,62.68
2017-06-25T03:53:46.089Z,62.45
2017-06-25T03:54:46.087Z,62.35
2017-06-25T03:55:46.083Z,62.48
2017-06-25T03:56:46.084Z,62.64
2017-06-25T03:57:46.079Z,62.58
2017-06-25T03:58:46.076Z,62.68
2017-06-25T03:59:46.073Z,63.15
2017-06-25T04:00:46.069Z,63.32
2017-06-25T04:01:46.067Z,63.79
2017-06-25T04:02:46.066Z,63.51
2017-06-25T04:03:46.062Z,63.99
2017-06-25T04:04:46.063Z,63.79
2017-06-25T04:05:46.057Z,63.89
2017-06-25T04:06:46.057Z,63.6
2017-06-25T04:07:46.051Z,64.28
2017-06-25T04:08:46.053Z,64.37
2017-06-25T04:09:46.050Z,64.66
2017-06-25T04:10:46.046Z,64.66
2017-06-25T04:11:46.042Z,64.37
2017-06-25T04:12:46.037Z,65.05
2017-06-25T04:13:46.037Z,64.37
2017-06-25T04:14:46.041Z,64.47
2017-06-25T04:15:46.032Z,64.37
2017-06-25T04:16:46.028Z,64.37
2017-06-25T04:17:46.028Z,64.47
2017-06-25T04:18:46.023Z,64.76
2017-06-25T04:19:46.020Z,65.05
2017-06-25T04:20:46.020Z,64.95
2017-06-25T04:21:46.015Z,64.85
2017-06-25T04:22:46.012Z,64.47
2017-06-25T04:23:46.010Z,63.54
2017-06-25T04:24:46.009Z,63.7
2017-06-25T04:25:46.007Z,63.51
2017-06-25T04:26:46.004Z,63.22
2017-06-25T04:27:46.001Z,63.6
2017-06-25T04:28:45.998Z,63.7
2017-06-25T04:29:45.993Z,64.09
2017-06-25T04:30:45.992Z,64.18
2017-06-25T04:31:45.992Z,63.6
2017-06-25T04:32:45.987Z,63.73
2017-06-25T04:33:45.984Z,63.79
2017-06-25T04:34:45.986Z,63.99
2017-06-25T04:35:45.978Z,63.92
2017-06-25T04:36:45.976Z,63.92
2017-06-25T04:37:45.673Z,63.64
2017-06-25T04:38:45.974Z,63.73
2017-06-25T04:39:45.971Z,63.83
2017-06-25T04:40:45.966Z,63.83
2017-06-25T04:41:45.964Z,63.25
2017-06-25T04:42:45.963Z,63.28
2017-06-25T04:43:45.966Z,63.38
2017-06-25T04:44:45.958Z,62.9
2017-06-25T04:45:45.959Z,63.09
2017-06-25T04:46:45.954Z,62.99
2017-06-25T04:47:45.950Z,62.71
2017-06-25T04:48:45.951Z,62.61
2017-06-25T04:49:45.946Z,62.41
2017-06-25T04:50:45.949Z,62.23
2017-06-25T04:51:45.946Z,62.26
2017-06-25T04:52:45.941Z,62.64
2017-06-25T04:53:45.939Z,62.83
2017-06-25T04:54:45.936Z,62.06
2017-06-25T04:55:45.932Z,61.97
2017-06-25T04:56:45.935Z,61.58
2017-06-25T04:57:45.933Z,61.52
2017-06-25T04:58:45.927Z,61.32
2017-06-25T04:59:45.623Z,61.61
2017-06-25T05:00:45.926Z,61.71
2017-06-25T05:01:45.922Z,61.45
2017-06-25T05:02:45.927Z,61.35
2017-06-25T05:03:45.921Z,61.16
2017-06-25T05:04:45.917Z,61.45
2017-06-25T05:05:45.918Z,61.55
2017-06-25T05:06:45.918Z,61.48
2017-06-25T05:07:45.913Z,60.52
2017-06-25T05:08:45.914Z,60.9
2017-06-25T05:09:45.911Z,60.8
2017-06-25T05:10:45.913Z,60.61
2017-06-25T05:11:45.909Z,60.83
2017-06-25T05:12:45.909Z,60.93
2017-06-25T05:13:45.908Z,60.93
2017-06-25T05:14:45.907Z,60.74
2017-06-25T05:15:45.905Z,60.45
2017-06-25T05:16:45.905Z,60.55
2017-06-25T05:17:45.902Z,60.26
2017-06-25T05:18:45.906Z,60.83
2017-06-25T05:19:45.902Z,60.55
2017-06-25T05:20:45.901Z,60.45
2017-06-25T05:21:45.906Z,60.45
2017-06-25T05:22:45.899Z,60.64
2017-06-25T05:23:45.901Z,60.77
2017-06-25T05:24:45.901Z,60.48
2017-06-25T05:25:45.901Z,60.48
2017-06-25T05:26:45.898Z,60.61
2017-06-25T05:27:45.899Z,60.31
2017-06-25T05:28:45.897Z,60.71
2017-06-25T05:29:45.895Z,60.61
2017-06-25T05:30:45.901Z,61.31
2017-06-25T05:31:45.898Z,61.31
2017-06-25T05:32:45.897Z,61.31
2017-06-25T05:33:45.901Z,61.31
2017-06-25T05:34:45.898Z,60.93
2017-06-25T05:35:45.897Z,61.12
2017-06-25T05:36:45.899Z,61.31
2017-06-25T05:37:45.901Z,61.34
2017-06-25T05:38:45.900Z,61.54
2017-06-25T05:39:45.903Z,61.37
2017-06-25T05:40:45.900Z,61.37
2017-06-25T05:41:45.904Z,61.08
2017-06-25T05:42:45.903Z,61.3
2017-06-25T05:43:45.904Z,61.11
2017-06-25T05:44:45.906Z,61.05
2017-06-25T05:45:45.906Z,61.05
2017-06-25T05:46:45.911Z,61.66
2017-06-25T05:47:45.912Z,61.46
2017-06-25T05:48:45.914Z,61.56
2017-06-25T05:49:45.916Z,61.79
2017-06-25T05:50:45.920Z,61.59
2017-06-25T05:51:45.923Z,60.91
2017-06-25T05:52:45.929Z,61.36
2017-06-25T05:53:45.929Z,61.4
2017-06-25T05:54:45.929Z,60.5
2017-06-25T05:55:45.931Z,60.3
2017-06-25T05:56:45.933Z,60.4
2017-06-25T05:57:45.633Z,60.5
2017-06-25T05:58:45.938Z,60.59
2017-06-25T05:59:45.942Z,60.59
2017-06-25T06:00:45.945Z,60.3
2017-06-25T06:01:45.950Z,60.59
2017-06-25T06:02:45.948Z,60.14
2017-06-25T06:03:45.951Z,60.52
2017-06-25T06:04:45.954Z,60.62
2017-06-25T06:05:45.955Z,60.43
2017-06-25T06:06:45.961Z,60.91
2017-06-25T06:07:45.681Z,60.33
2017-06-25T06:08:45.964Z,60.33
2017-06-25T06:09:45.670Z,59.84
2017-06-25T06:10:45.969Z,59.88
2017-06-25T06:11:45.976Z,60.07
2017-06-25T06:12:45.975Z,59.81
2017-06-25T06:13:45.985Z,59.42
2017-06-25T06:14:45.982Z,58.94
2017-06-25T06:15:45.987Z,58.87
2017-06-25T06:16:45.990Z,58.61
2017-06-25T06:17:45.993Z,58.12
2017-06-25T06:18:46.000Z,57.96
2017-06-25T06:19:46.003Z,57.67
2017-06-25T06:20:46.010Z,57.18
2017-06-25T06:21:46.014Z,57.18
2017-06-25T06:22:46.013Z,57.18
2017-06-25T06:23:46.019Z,56.79
2017-06-25T06:24:46.025Z,57.01
2017-06-25T06:25:46.028Z,56.72
2017-06-25T06:26:46.035Z,56.62
2017-06-25T06:27:46.037Z,56.04
2017-06-25T06:28:46.042Z,56.52
2017-06-25T06:29:46.048Z,56.72
2017-06-25T06:30:46.052Z,56.72
2017-06-25T06:31:46.059Z,56.52
2017-06-25T06:32:46.062Z,56.52
2017-06-25T06:33:46.063Z,56.43
2017-06-25T06:34:46.069Z,56.24
2017-06-25T06:35:46.075Z,56.52
2017-06-25T06:36:46.082Z,56.5
2017-06-25T06:37:46.113Z,56.4
2017-06-25T06:38:46.086Z,56.11
2017-06-25T06:39:46.094Z,56.96
2017-06-25T06:40:46.096Z,56.47
2017-06-25T06:41:46.102Z,56.67
2017-06-25T06:42:46.109Z,56.57
2017-06-25T06:43:46.108Z,56.74
2017-06-25T06:44:46.111Z,57.51
2017-06-25T06:45:46.120Z,57.03
2017-06-25T06:46:45.818Z,57.29
2017-06-25T06:47:46.121Z,57.87
2017-06-25T06:48:46.125Z,57.58
2017-06-25T06:49:46.128Z,57.78
2017-06-25T06:50:46.134Z,57.65
2017-06-25T06:51:46.134Z,57.84
2017-06-25T06:52:46.138Z,58.62
2017-06-25T06:53:46.142Z,58.42
2017-06-25T06:54:46.144Z,58.3
2017-06-25T06:55:46.150Z,58.11
2017-06-25T06:56:46.149Z,59.36
2017-06-25T06:57:46.151Z,58.98
2017-06-25T06:58:46.156Z,58.85
2017-06-25T06:59:46.159Z,58.56
2017-06-25T07:00:45.856Z,58.56
2017-06-25T07:01:46.163Z,58.37
2017-06-25T07:02:46.164Z,58.95
2017-06-25T07:03:46.164Z,58.75
2017-06-25T07:04:46.171Z,58.65
2017-06-25T07:05:46.171Z,58.85
2017-06-25T07:06:46.174Z,58.95
2017-06-25T07:07:46.176Z,58.88
2017-06-25T07:08:45.873Z,59.07
2017-06-25T07:09:46.179Z,59.07
2017-06-25T07:10:46.185Z,58.78
2017-06-25T07:11:46.186Z,58.49
2017-06-25T07:12:46.188Z,58.33
2017-06-25T07:13:46.193Z,58.36
2017-06-25T07:14:46.194Z,57.87
2017-06-25T07:15:46.194Z,57.9
2017-06-25T07:16:46.200Z,56.86
2017-06-25T07:17:46.203Z,57.06
2017-06-25T07:18:46.205Z,56.6
2017-06-25T07:19:46.207Z,56.5
2017-06-25T07:20:46.216Z,56.5
2017-06-25T07:21:46.218Z,56.01
2017-06-25T07:22:46.221Z,57.08
2017-06-25T07:23:46.222Z,56.6
2017-06-25T07:24:46.227Z,56.6
2017-06-25T07:25:46.228Z,56.21
2017-06-25T07:26:46.239Z,56.57
2017-06-25T07:27:46.240Z,56.6
2017-06-25T07:28:46.245Z,56.3
2017-06-25T07:29:46.246Z,56.5
2017-06-25T07:30:46.253Z,56.79
2017-06-25T07:31:46.256Z,56.11
2017-06-25T07:32:46.261Z,56.28
2017-06-25T07:33:46.262Z,56.47
2017-06-25T07:34:46.271Z,56.47
2017-06-25T07:35:46.275Z,56.57
2017-06-25T07:36:45.973Z,56.37
2017-06-25T07:37:46.293Z,57.06
2017-06-25T07:38:46.283Z,56.57
2017-06-25T07:39:46.288Z,57.03
2017-06-25T07:40:46.292Z,56.74
2017-06-25T07:41:46.299Z,56.64
2017-06-25T07:42:46.300Z,56.74
2017-06-25T07:43:46.304Z,56.71
2017-06-25T07:44:46.308Z,56.41
2017-06-25T07:45:46.309Z,56.61
2017-06-25T07:46:46.318Z,57.19
2017-06-25T07:47:46.316Z,56.51
2017-06-25T07:48:46.324Z,56.41
2017-06-25T07:49:46.326Z,57
2017-06-25T07:50:46.329Z,56.61
2017-06-25T07:51:46.331Z,56.49
2017-06-25T07:52:46.336Z,56.68
2017-06-25T07:53:46.336Z,56.49
2017-06-25T07:54:46.344Z,57.17
2017-06-25T07:55:46.041Z,57.26
2017-06-25T07:56:46.347Z,57.14
2017-06-25T07:57:46.045Z,57.14
2017-06-25T07:58:46.353Z,57.04
2017-06-25T07:59:46.356Z,57.14
2017-06-25T08:00:46.357Z,57.14
2017-06-25T08:01:46.059Z,57.43
2017-06-25T08:02:46.363Z,57.33
2017-06-25T08:03:46.365Z,57.53
2017-06-25T08:04:46.368Z,57.53
2017-06-25T08:05:46.368Z,57.53
2017-06-25T08:06:46.067Z,57.62
2017-06-25T08:07:46.071Z,57.53
2017-06-25T08:08:46.074Z,57.33
2017-06-25T08:09:46.076Z,57.71
2017-06-25T08:10:46.381Z,57.91
2017-06-25T08:11:46.384Z,58.69
2017-06-25T08:12:46.082Z,58.27
2017-06-25T08:13:46.385Z,58.75
2017-06-25T08:14:46.087Z,58.17
2017-06-25T08:15:46.089Z,58.37
2017-06-25T08:16:46.090Z,57.95
2017-06-25T08:17:46.394Z,57.98
2017-06-25T08:18:46.396Z,58.92
2017-06-25T08:19:46.396Z,58.85
2017-06-25T08:20:46.397Z,58.34
2017-06-25T08:21:46.403Z,58.82
2017-06-25T08:22:46.403Z,59.21
2017-06-25T08:23:46.405Z,59.56
2017-06-25T08:24:46.409Z,59.56
2017-06-25T08:25:46.406Z,59.66
2017-06-25T08:26:46.409Z,59.38
2017-06-25T08:27:46.410Z,59.28
2017-06-25T08:28:46.412Z,59.08
2017-06-25T08:29:46.415Z,59.47
2017-06-25T08:30:46.415Z,59.86
2017-06-25T08:31:46.109Z,59.56
2017-06-25T08:32:46.418Z,59.08
2017-06-25T08:33:46.415Z,59.05
2017-06-25T08:34:46.417Z,58.95
2017-06-25T08:35:46.422Z,59.53
2017-06-25T08:36:46.418Z,60.02
2017-06-25T08:37:46.454Z,60.41
2017-06-25T08:38:46.421Z,60.05
2017-06-25T08:39:46.423Z,60.24
2017-06-25T08:40:46.426Z,60.14
2017-06-25T08:41:46.426Z,60.08
2017-06-25T08:42:46.429Z,59.5
2017-06-25T08:43:46.428Z,59.59
2017-06-25T08:44:46.429Z,60.17
2017-06-25T08:45:46.433Z,60.01
2017-06-25T08:46:46.434Z,59.33
2017-06-25T08:47:46.438Z,59.14
2017-06-25T08:48:46.153Z,60.01
2017-06-25T08:49:46.443Z,59.66
2017-06-25T08:50:46.446Z,59.66
2017-06-25T08:51:46.444Z,59.07
2017-06-25T08:52:46.446Z,59.17
2017-06-25T08:53:46.446Z,58.81
2017-06-25T08:54:46.451Z,59.1
2017-06-25T08:55:46.454Z,58.45
2017-06-25T08:56:46.453Z,58.55
2017-06-25T08:57:46.462Z,58.77
2017-06-25T08:58:46.462Z,58.48
2017-06-25T08:59:46.464Z,58
2017-06-25T09:00:46.472Z,57.51
2017-06-25T09:01:46.468Z,57.32
2017-06-25T09:02:46.474Z,57.7
2017-06-25T09:03:46.481Z,57.64
2017-06-25T09:04:46.484Z,57.7
2017-06-25T09:05:46.486Z,57.73
2017-06-25T09:06:46.487Z,57.32
2017-06-25T09:07:46.486Z,57.32
2017-06-25T09:08:46.193Z,57.87
2017-06-25T09:09:46.497Z,57.48
2017-06-25T09:10:46.198Z,56.68
2017-06-25T09:11:46.503Z,57.55
2017-06-25T09:12:46.507Z,57.43
2017-06-25T09:13:46.506Z,57.62
2017-06-25T09:14:46.510Z,58.07
2017-06-25T09:15:46.209Z,57.86
2017-06-25T09:16:46.515Z,58.14
2017-06-25T09:17:46.522Z,57.76
2017-06-25T09:18:46.523Z,58.5
2017-06-25T09:19:46.524Z,58.21
2017-06-25T09:20:46.529Z,58.7
2017-06-25T09:21:46.225Z,59.08
2017-06-25T09:22:46.533Z,58.89
2017-06-25T09:23:46.536Z,58.98
2017-06-25T09:24:46.536Z,58.95
2017-06-25T09:25:46.538Z,58.98
2017-06-25T09:26:46.538Z,58.95
2017-06-25T09:27:46.541Z,58.95
2017-06-25T09:28:46.540Z,58.86
2017-06-25T09:29:46.541Z,59.38
2017-06-25T09:30:46.545Z,58.5
2017-06-25T09:31:46.547Z,58.8
2017-06-25T09:32:46.547Z,58.8
2017-06-25T09:33:46.549Z,59.08
2017-06-25T09:34:46.553Z,58.7
2017-06-25T09:35:46.553Z,59.18
2017-06-25T09:36:46.554Z,58.7
2017-06-25T09:37:46.559Z,58.8
2017-06-25T09:38:46.557Z,59.28
2017-06-25T09:39:46.561Z,59.28
2017-06-25T09:40:46.254Z,58.7
2017-06-25T09:41:46.560Z,58.89
2017-06-25T09:42:46.259Z,58.89
2017-06-25T09:43:46.572Z,58.89
2017-06-25T09:44:46.564Z,58.89
2017-06-25T09:45:46.570Z,59.11
2017-06-25T09:46:46.567Z,58.63
2017-06-25T09:47:46.569Z,58.72
2017-06-25T09:48:46.570Z,58.92
2017-06-25T09:49:46.573Z,58.95
2017-06-25T09:50:46.576Z,58.85
2017-06-25T09:51:46.578Z,58.56
2017-06-25T09:52:46.580Z,58.56
2017-06-25T09:53:46.584Z,57.98
2017-06-25T09:54:46.584Z,57.79
2017-06-25T09:55:46.590Z,58.95
2017-06-25T09:56:46.590Z,58.07
2017-06-25T09:57:46.593Z,58.56
2017-06-25T09:58:46.595Z,58.65
2017-06-25T09:59:46.600Z,58.34
2017-06-25T10:00:46.603Z,59.01
2017-06-25T10:01:46.602Z,59.21
2017-06-25T10:02:46.604Z,59.98
2017-06-25T10:03:46.619Z,59.47
2017-06-25T10:04:46.611Z,59.38
2017-06-25T10:05:46.613Z,59.28
2017-06-25T10:06:46.612Z,60.34
2017-06-25T10:07:46.615Z,60.21
2017-06-25T10:08:46.621Z,59.83
2017-06-25T10:09:46.617Z,60.21
2017-06-25T10:10:46.622Z,61.18
2017-06-25T10:11:46.623Z,60.92
2017-06-25T10:12:46.629Z,60.92
2017-06-25T10:13:46.628Z,61.11
2017-06-25T10:14:46.630Z,60.05
2017-06-25T10:15:46.328Z,59.95
2017-06-25T10:16:46.640Z,59.31
2017-06-25T10:17:46.635Z,59.5
2017-06-25T10:18:46.645Z,59.11
2017-06-25T10:19:46.641Z,58.63
2017-06-25T10:20:46.641Z,58.63
2017-06-25T10:21:46.653Z,59.14
2017-06-25T10:22:46.347Z,58.85
2017-06-25T10:23:46.651Z,59.07
2017-06-25T10:24:46.661Z,59.07
2017-06-25T10:25:46.654Z,59
2017-06-25T10:26:46.661Z,58.91
2017-06-25T10:27:46.666Z,58.94
2017-06-25T10:28:46.666Z,59.91
2017-06-25T10:29:46.666Z,60.71
2017-06-25T10:30:46.670Z,58.97
2017-06-25T10:31:46.674Z,59.19
2017-06-25T10:32:46.680Z,59.48
2017-06-25T10:33:46.686Z,59.7
2017-06-25T10:34:46.689Z,59.31
2017-06-25T10:35:46.691Z,59.41
2017-06-25T10:36:46.696Z,59.22
2017-06-25T10:37:46.699Z,59.64
2017-06-25T10:38:46.705Z,59.64
2017-06-25T10:39:46.712Z,59.25
2017-06-25T10:40:46.718Z,59.92
2017-06-25T10:41:46.726Z,58.79
2017-06-25T10:42:46.723Z,59.95
2017-06-25T10:43:46.730Z,59.18
2017-06-25T10:44:46.734Z,58.57
2017-06-25T10:45:46.739Z,58.95
2017-06-25T10:46:46.444Z,59.54
2017-06-25T10:47:46.752Z,59.25
2017-06-25T10:48:46.757Z,58.95
2017-06-25T10:49:46.761Z,59.25
2017-06-25T10:50:46.766Z,60.71
2017-06-25T10:51:46.774Z,58.98
2017-06-25T10:52:46.776Z,58.59
2017-06-25T10:53:46.778Z,59.05
2017-06-25T10:54:46.786Z,59.28
2017-06-25T10:55:46.791Z,58.59
2017-06-25T10:56:46.796Z,59.47
2017-06-25T10:57:46.800Z,59.08
2017-06-25T10:58:46.805Z,58.89
2017-06-25T10:59:46.509Z,58.04
2017-06-25T11:00:46.817Z,58.07
2017-06-25T11:01:46.826Z,58.56
2017-06-25T11:02:46.828Z,58.07
2017-06-25T11:03:46.834Z,57.22
2017-06-25T11:04:46.838Z,57.03
2017-06-25T11:05:46.842Z,57.12
2017-06-25T11:06:46.853Z,56.74
2017-06-25T11:07:46.856Z,56.93
2017-06-25T11:08:46.861Z,56.86
2017-06-25T11:09:46.870Z,56.18
2017-06-25T11:10:46.873Z,55.82
2017-06-25T11:11:46.879Z,55.52
2017-06-25T11:12:46.886Z,54.55
2017-06-25T11:13:46.891Z,55.62
2017-06-25T11:14:46.902Z,55.13
2017-06-25T11:15:46.903Z,55.72
2017-06-25T11:16:46.913Z,55.72
2017-06-25T11:17:46.918Z,55.82
2017-06-25T11:18:46.923Z,55.33
2017-06-25T11:19:46.929Z,55.04
2017-06-25T11:20:46.938Z,55.52
2017-06-25T11:21:46.946Z,55.72
2017-06-25T11:22:46.950Z,54.46
2017-06-25T11:23:46.956Z,54.55
2017-06-25T11:24:46.962Z,54.65
2017-06-25T11:25:46.968Z,54.65
2017-06-25T11:26:46.978Z,54.46
2017-06-25T11:27:46.981Z,54.46
2017-06-25T11:28:46.687Z,54.36
2017-06-25T11:29:46.998Z,54.68
2017-06-25T11:30:47.000Z,54.28
2017-06-25T11:31:47.007Z,54.48
2017-06-25T11:32:47.013Z,54.38
2017-06-25T11:33:47.018Z,54.38
2017-06-25T11:34:47.025Z,54.38
2017-06-25T11:35:47.034Z,54.19
2017-06-25T11:36:47.040Z,53.99
2017-06-25T11:37:47.048Z,54.48
2017-06-25T11:38:47.050Z,54.09
2017-06-25T11:39:46.760Z,54.38
2017-06-25T11:40:47.065Z,54.16
2017-06-25T11:41:47.071Z,53.97
2017-06-25T11:42:47.079Z,54.03
2017-06-25T11:43:47.085Z,53.85
2017-06-25T11:44:47.088Z,54.52
2017-06-25T11:45:47.093Z,54.52
2017-06-25T11:46:47.104Z,55.57
2017-06-25T11:47:47.109Z,54.89
2017-06-25T11:48:47.114Z,55.11
2017-06-25T11:49:47.118Z,54.82
2017-06-25T11:50:47.128Z,54.21
2017-06-25T11:51:47.131Z,54.69
2017-06-25T11:52:46.834Z,54.6
2017-06-25T11:53:47.141Z,54.3
2017-06-25T11:54:47.150Z,54.33
2017-06-25T11:55:47.155Z,54.23
2017-06-25T11:56:47.162Z,54.43
2017-06-25T11:57:47.170Z,54.43
2017-06-25T11:58:47.173Z,54.62
2017-06-25T11:59:47.178Z,55.3
2017-06-25T12:00:47.184Z,55.5
2017-06-25T12:01:47.189Z,55.5
2017-06-25T12:02:47.197Z,55.6
2017-06-25T12:03:47.202Z,55.27
2017-06-25T12:04:47.210Z,55.27
2017-06-25T12:05:47.215Z,55.57
2017-06-25T12:06:47.218Z,55.86
2017-06-25T12:07:47.225Z,55.4
2017-06-25T12:08:47.231Z,55.57
2017-06-25T12:09:47.236Z,55.37
2017-06-25T12:10:46.938Z,55.18
2017-06-25T12:11:47.249Z,55.47
2017-06-25T12:12:47.256Z,55.6
2017-06-25T12:13:47.259Z,55.4
2017-06-25T12:14:47.267Z,55.4
2017-06-25T12:15:47.273Z,54.75
2017-06-25T12:16:47.279Z,54.16
2017-06-25T12:17:47.286Z,54.46
2017-06-25T12:18:47.290Z,53.58
2017-06-25T12:19:46.997Z,53.38
2017-06-25T12:20:47.304Z,53.67
2017-06-25T12:21:47.310Z,54.06
2017-06-25T12:22:47.320Z,53.94
2017-06-25T12:23:47.327Z,54.03
2017-06-25T12:24:47.328Z,54.23
2017-06-25T12:25:47.334Z,54.33
2017-06-25T12:26:47.338Z,53.94
2017-06-25T12:27:47.346Z,54.3
2017-06-25T12:28:47.371Z,54.3
2017-06-25T12:29:47.356Z,55.25
2017-06-25T12:30:47.364Z,55.44
2017-06-25T12:31:47.368Z,55.35
2017-06-25T12:32:47.373Z,55.54
2017-06-25T12:33:47.383Z,54.4
2017-06-25T12:34:47.387Z,54.01
2017-06-25T12:35:47.391Z,54.21
2017-06-25T12:36:47.398Z,54.3
2017-06-25T12:37:47.404Z,54.21
2017-06-25T12:38:47.409Z,54.01
2017-06-25T12:39:47.416Z,53.36
2017-06-25T12:40:47.419Z,53.45
2017-06-25T12:41:47.423Z,52.97
2017-06-25T12:42:47.126Z,52.5
2017-06-25T12:43:47.437Z,52.14
2017-06-25T12:44:47.442Z,52.04
2017-06-25T12:45:47.454Z,52.04
2017-06-25T12:46:47.457Z,51.85
2017-06-25T12:47:47.462Z,51.75
2017-06-25T12:48:47.467Z,51.73
2017-06-25T12:49:47.472Z,52.22
2017-06-25T12:50:47.479Z,52.58
2017-06-25T12:51:47.486Z,52.94
2017-06-25T12:52:47.493Z,53.99
2017-06-25T12:53:47.497Z,55.64
2017-06-25T12:54:47.504Z,54.25
2017-06-25T12:55:47.508Z,55.98
2017-06-25T12:56:47.515Z,56.79